sensor_id;sensor_type;location;lat;lon;timestamp;P1;durP1;ratioP1;P2;durP2;ratioP2
54412;SDS011;41533;51.390;0.074;2023-03-03T00:00:21;1.73;;;1.08;;
54412;SDS011;41533;51.390;0.074;2023-03-03T00:02:51;0.70;;;0.70;;
54412;SDS011;41533;51.390;0.074;2023-03-03T00:05:18;0.55;;;0.50;;
54412;SDS011;41533;51.390;0.074;2023-03-03T00:07:46;1.35;;;0.73;;
54412;SDS011;41533;51.390;0.074;2023-03-03T00:10:15;1.02;;;0.90;;
54412;SDS011;41533;51.390;0.074;2023-03-03T00:12:46;0.80;;;0.70;;
54412;SDS011;41533;51.390;0.074;2023-03-03T00:15:15;1.15;;;0.90;;
54412;SDS011;41533;51.390;0.074;2023-03-03T00:17:44;0.90;;;0.80;;
54412;SDS011;41533;51.390;0.074;2023-03-03T00:22:49;1.10;;;0.60;;
54412;SDS011;41533;51.390;0.074;2023-03-03T00:25:28;1.63;;;1.00;;
54412;SDS011;41533;51.390;0.074;2023-03-03T00:28:06;1.00;;;0.80;;
54412;SDS011;41533;51.390;0.074;2023-03-03T00:30:36;2.35;;;0.93;;
54412;SDS011;41533;51.390;0.074;2023-03-03T00:33:19;1.58;;;0.90;;
54412;SDS011;41533;51.390;0.074;2023-03-03T00:35:49;3.08;;;0.93;;
54412;SDS011;41533;51.390;0.074;2023-03-03T00:38:17;1.17;;;0.90;;
54412;SDS011;41533;51.390;0.074;2023-03-03T00:40:45;1.83;;;0.85;;
54412;SDS011;41533;51.390;0.074;2023-03-03T00:43:23;1.33;;;0.75;;
54412;SDS011;41533;51.390;0.074;2023-03-03T00:45:51;1.42;;;1.05;;
54412;SDS011;41533;51.390;0.074;2023-03-03T00:48:20;3.10;;;1.10;;
54412;SDS011;41533;51.390;0.074;2023-03-03T00:50:49;1.02;;;0.65;;
54412;SDS011;41533;51.390;0.074;2023-03-03T00:53:17;0.77;;;0.73;;
54412;SDS011;41533;51.390;0.074;2023-03-03T00:55:46;1.75;;;1.00;;
54412;SDS011;41533;51.390;0.074;2023-03-03T00:58:16;1.95;;;0.85;;
54412;SDS011;41533;51.390;0.074;2023-03-03T01:00:49;0.95;;;0.80;;
54412;SDS011;41533;51.390;0.074;2023-03-03T01:03:21;1.13;;;0.80;;
54412;SDS011;41533;51.390;0.074;2023-03-03T01:05:48;2.33;;;0.73;;
54412;SDS011;41533;51.390;0.074;2023-03-03T01:08:16;0.88;;;0.85;;
54412;SDS011;41533;51.390;0.074;2023-03-03T01:10:49;1.05;;;0.70;;
54412;SDS011;41533;51.390;0.074;2023-03-03T01:13:33;3.50;;;0.95;;
54412;SDS011;41533;51.390;0.074;2023-03-03T01:16:03;1.05;;;0.70;;
54412;SDS011;41533;51.390;0.074;2023-03-03T01:18:31;0.75;;;0.60;;
54412;SDS011;41533;51.390;0.074;2023-03-03T01:20:59;3.80;;;1.00;;
54412;SDS011;41533;51.390;0.074;2023-03-03T01:23:28;1.80;;;0.98;;
54412;SDS011;41533;51.390;0.074;2023-03-03T01:25:55;2.05;;;1.17;;
54412;SDS011;41533;51.390;0.074;2023-03-03T01:28:23;1.45;;;0.77;;
54412;SDS011;41533;51.390;0.074;2023-03-03T01:30:51;1.50;;;0.75;;
54412;SDS011;41533;51.390;0.074;2023-03-03T01:33:45;2.22;;;0.80;;
54412;SDS011;41533;51.390;0.074;2023-03-03T01:36:13;1.05;;;0.93;;
54412;SDS011;41533;51.390;0.074;2023-03-03T01:38:45;1.42;;;0.77;;
54412;SDS011;41533;51.390;0.074;2023-03-03T01:41:13;2.67;;;1.00;;
54412;SDS011;41533;51.390;0.074;2023-03-03T01:43:44;2.45;;;0.90;;
54412;SDS011;41533;51.390;0.074;2023-03-03T01:49:06;0.80;;;0.80;;
54412;SDS011;41533;51.390;0.074;2023-03-03T01:51:47;3.47;;;1.00;;
54412;SDS011;41533;51.390;0.074;2023-03-03T01:54:24;1.20;;;0.70;;
54412;SDS011;41533;51.390;0.074;2023-03-03T01:56:52;1.65;;;0.90;;
54412;SDS011;41533;51.390;0.074;2023-03-03T01:59:22;1.90;;;1.00;;
54412;SDS011;41533;51.390;0.074;2023-03-03T02:01:52;1.40;;;0.93;;
54412;SDS011;41533;51.390;0.074;2023-03-03T02:04:19;2.05;;;1.00;;
54412;SDS011;41533;51.390;0.074;2023-03-03T02:06:53;0.80;;;0.80;;
54412;SDS011;41533;51.390;0.074;2023-03-03T02:12:02;0.90;;;0.80;;
54412;SDS011;41533;51.390;0.074;2023-03-03T02:14:31;2.05;;;0.90;;
54412;SDS011;41533;51.390;0.074;2023-03-03T02:16:58;1.65;;;0.90;;
54412;SDS011;41533;51.390;0.074;2023-03-03T02:21:56;1.67;;;1.02;;
54412;SDS011;41533;51.390;0.074;2023-03-03T02:24:26;3.72;;;0.90;;
54412;SDS011;41533;51.390;0.074;2023-03-03T02:26:55;3.28;;;1.00;;
54412;SDS011;41533;51.390;0.074;2023-03-03T02:29:22;2.40;;;0.80;;
54412;SDS011;41533;51.390;0.074;2023-03-03T02:31:51;1.38;;;0.88;;
54412;SDS011;41533;51.390;0.074;2023-03-03T02:34:20;1.90;;;1.10;;
54412;SDS011;41533;51.390;0.074;2023-03-03T02:36:48;1.45;;;0.90;;
54412;SDS011;41533;51.390;0.074;2023-03-03T02:41:46;1.55;;;0.88;;
54412;SDS011;41533;51.390;0.074;2023-03-03T02:44:19;3.30;;;1.17;;
54412;SDS011;41533;51.390;0.074;2023-03-03T02:46:47;1.38;;;1.13;;
54412;SDS011;41533;51.390;0.074;2023-03-03T02:49:21;1.35;;;0.77;;
54412;SDS011;41533;51.390;0.074;2023-03-03T02:54:21;0.77;;;0.77;;
54412;SDS011;41533;51.390;0.074;2023-03-03T02:57:02;1.48;;;1.05;;
54412;SDS011;41533;51.390;0.074;2023-03-03T02:59:30;1.25;;;0.88;;
54412;SDS011;41533;51.390;0.074;2023-03-03T03:02:09;1.70;;;0.80;;
54412;SDS011;41533;51.390;0.074;2023-03-03T03:04:37;1.02;;;0.90;;
54412;SDS011;41533;51.390;0.074;2023-03-03T03:07:05;1.25;;;0.90;;
54412;SDS011;41533;51.390;0.074;2023-03-03T03:09:35;2.17;;;1.10;;
54412;SDS011;41533;51.390;0.074;2023-03-03T03:12:04;2.50;;;1.30;;
54412;SDS011;41533;51.390;0.074;2023-03-03T03:14:34;2.72;;;1.08;;
54412;SDS011;41533;51.390;0.074;2023-03-03T03:17:03;1.30;;;0.88;;
54412;SDS011;41533;51.390;0.074;2023-03-03T03:19:31;1.10;;;1.00;;
54412;SDS011;41533;51.390;0.074;2023-03-03T03:22:01;3.30;;;0.90;;
54412;SDS011;41533;51.390;0.074;2023-03-03T03:24:31;0.70;;;0.70;;
54412;SDS011;41533;51.390;0.074;2023-03-03T03:27:05;2.03;;;1.20;;
54412;SDS011;41533;51.390;0.074;2023-03-03T03:29:34;1.65;;;1.40;;
54412;SDS011;41533;51.390;0.074;2023-03-03T03:32:07;2.05;;;0.90;;
54412;SDS011;41533;51.390;0.074;2023-03-03T03:34:36;2.83;;;1.02;;
54412;SDS011;41533;51.390;0.074;2023-03-03T03:37:04;1.38;;;0.90;;
54412;SDS011;41533;51.390;0.074;2023-03-03T03:39:39;2.22;;;1.20;;
54412;SDS011;41533;51.390;0.074;2023-03-03T03:42:08;2.33;;;1.30;;
54412;SDS011;41533;51.390;0.074;2023-03-03T03:44:37;2.63;;;1.17;;
54412;SDS011;41533;51.390;0.074;2023-03-03T03:47:05;2.35;;;0.90;;
54412;SDS011;41533;51.390;0.074;2023-03-03T03:49:33;2.72;;;1.10;;
54412;SDS011;41533;51.390;0.074;2023-03-03T03:52:05;1.25;;;0.82;;
54412;SDS011;41533;51.390;0.074;2023-03-03T03:54:34;2.97;;;0.90;;
54412;SDS011;41533;51.390;0.074;2023-03-03T03:57:02;1.55;;;0.85;;
54412;SDS011;41533;51.390;0.074;2023-03-03T03:59:30;3.30;;;1.10;;
54412;SDS011;41533;51.390;0.074;2023-03-03T04:01:58;1.15;;;1.05;;
54412;SDS011;41533;51.390;0.074;2023-03-03T04:04:25;1.20;;;0.95;;
54412;SDS011;41533;51.390;0.074;2023-03-03T04:06:53;2.03;;;0.95;;
54412;SDS011;41533;51.390;0.074;2023-03-03T04:09:21;1.20;;;0.90;;
54412;SDS011;41533;51.390;0.074;2023-03-03T04:11:48;3.25;;;1.05;;
54412;SDS011;41533;51.390;0.074;2023-03-03T04:14:17;1.00;;;1.00;;
54412;SDS011;41533;51.390;0.074;2023-03-03T04:16:44;1.65;;;0.88;;
54412;SDS011;41533;51.390;0.074;2023-03-03T04:19:20;1.00;;;0.70;;
54412;SDS011;41533;51.390;0.074;2023-03-03T04:21:49;1.52;;;1.05;;
54412;SDS011;41533;51.390;0.074;2023-03-03T04:24:17;2.25;;;1.13;;
54412;SDS011;41533;51.390;0.074;2023-03-03T04:26:47;1.17;;;0.75;;
54412;SDS011;41533;51.390;0.074;2023-03-03T04:29:15;0.82;;;0.80;;
54412;SDS011;41533;51.390;0.074;2023-03-03T04:31:45;1.15;;;1.00;;
54412;SDS011;41533;51.390;0.074;2023-03-03T04:34:16;2.03;;;1.13;;
54412;SDS011;41533;51.390;0.074;2023-03-03T04:36:46;1.55;;;1.45;;
54412;SDS011;41533;51.390;0.074;2023-03-03T04:39:14;0.70;;;0.70;;
54412;SDS011;41533;51.390;0.074;2023-03-03T04:41:43;0.60;;;0.60;;
54412;SDS011;41533;51.390;0.074;2023-03-03T04:44:10;3.92;;;0.80;;
54412;SDS011;41533;51.390;0.074;2023-03-03T04:46:42;1.95;;;0.93;;
54412;SDS011;41533;51.390;0.074;2023-03-03T04:49:11;2.20;;;1.25;;
54412;SDS011;41533;51.390;0.074;2023-03-03T04:51:40;1.58;;;0.93;;
54412;SDS011;41533;51.390;0.074;2023-03-03T04:54:09;2.38;;;1.00;;
54412;SDS011;41533;51.390;0.074;2023-03-03T04:56:37;0.77;;;0.70;;
54412;SDS011;41533;51.390;0.074;2023-03-03T04:59:06;1.27;;;0.70;;
54412;SDS011;41533;51.390;0.074;2023-03-03T05:01:36;1.00;;;0.88;;
54412;SDS011;41533;51.390;0.074;2023-03-03T05:04:06;1.00;;;0.95;;
54412;SDS011;41533;51.390;0.074;2023-03-03T05:06:33;0.93;;;0.80;;
54412;SDS011;41533;51.390;0.074;2023-03-03T05:09:01;1.13;;;0.90;;
54412;SDS011;41533;51.390;0.074;2023-03-03T05:11:31;0.82;;;0.82;;
54412;SDS011;41533;51.390;0.074;2023-03-03T05:13:58;2.38;;;0.90;;
54412;SDS011;41533;51.390;0.074;2023-03-03T05:16:29;3.75;;;0.85;;
54412;SDS011;41533;51.390;0.074;2023-03-03T05:18:56;2.05;;;0.90;;
54412;SDS011;41533;51.390;0.074;2023-03-03T05:21:24;2.60;;;1.15;;
54412;SDS011;41533;51.390;0.074;2023-03-03T05:23:51;0.98;;;0.80;;
54412;SDS011;41533;51.390;0.074;2023-03-03T05:26:19;1.70;;;0.80;;
54412;SDS011;41533;51.390;0.074;2023-03-03T05:28:48;2.38;;;1.42;;
54412;SDS011;41533;51.390;0.074;2023-03-03T05:31:18;0.93;;;0.77;;
54412;SDS011;41533;51.390;0.074;2023-03-03T05:33:46;1.25;;;0.80;;
54412;SDS011;41533;51.390;0.074;2023-03-03T05:36:17;1.15;;;0.82;;
54412;SDS011;41533;51.390;0.074;2023-03-03T05:38:45;0.52;;;0.52;;
54412;SDS011;41533;51.390;0.074;2023-03-03T05:41:15;1.63;;;0.95;;
54412;SDS011;41533;51.390;0.074;2023-03-03T05:43:45;0.68;;;0.65;;
54412;SDS011;41533;51.390;0.074;2023-03-03T05:46:16;2.17;;;1.08;;
54412;SDS011;41533;51.390;0.074;2023-03-03T05:48:44;2.78;;;0.70;;
54412;SDS011;41533;51.390;0.074;2023-03-03T05:51:12;1.13;;;0.77;;
54412;SDS011;41533;51.390;0.074;2023-03-03T05:53:42;1.90;;;1.73;;
54412;SDS011;41533;51.390;0.074;2023-03-03T05:56:12;1.25;;;0.68;;
54412;SDS011;41533;51.390;0.074;2023-03-03T05:58:43;3.28;;;0.82;;
54412;SDS011;41533;51.390;0.074;2023-03-03T06:01:10;0.80;;;0.65;;
54412;SDS011;41533;51.390;0.074;2023-03-03T06:03:38;0.98;;;0.70;;
54412;SDS011;41533;51.390;0.074;2023-03-03T06:06:07;1.17;;;0.90;;
54412;SDS011;41533;51.390;0.074;2023-03-03T06:08:37;1.83;;;1.05;;
54412;SDS011;41533;51.390;0.074;2023-03-03T06:11:05;1.60;;;1.10;;
54412;SDS011;41533;51.390;0.074;2023-03-03T06:13:34;2.13;;;0.70;;
54412;SDS011;41533;51.390;0.074;2023-03-03T06:16:09;1.50;;;0.70;;
54412;SDS011;41533;51.390;0.074;2023-03-03T06:18:39;2.25;;;0.80;;
54412;SDS011;41533;51.390;0.074;2023-03-03T06:21:06;0.80;;;0.70;;
54412;SDS011;41533;51.390;0.074;2023-03-03T06:23:36;4.63;;;1.00;;
54412;SDS011;41533;51.390;0.074;2023-03-03T06:26:03;1.35;;;0.65;;
54412;SDS011;41533;51.390;0.074;2023-03-03T06:28:31;0.82;;;0.70;;
54412;SDS011;41533;51.390;0.074;2023-03-03T06:30:59;0.80;;;0.70;;
54412;SDS011;41533;51.390;0.074;2023-03-03T06:33:27;1.83;;;1.63;;
54412;SDS011;41533;51.390;0.074;2023-03-03T06:35:55;2.75;;;1.20;;
54412;SDS011;41533;51.390;0.074;2023-03-03T06:38:24;0.68;;;0.68;;
54412;SDS011;41533;51.390;0.074;2023-03-03T06:40:53;0.63;;;0.60;;
54412;SDS011;41533;51.390;0.074;2023-03-03T06:43:27;1.95;;;0.68;;
54412;SDS011;41533;51.390;0.074;2023-03-03T06:45:54;0.70;;;0.60;;
54412;SDS011;41533;51.390;0.074;2023-03-03T06:48:24;0.90;;;0.68;;
54412;SDS011;41533;51.390;0.074;2023-03-03T06:50:53;1.23;;;0.90;;
54412;SDS011;41533;51.390;0.074;2023-03-03T06:53:21;5.57;;;0.90;;
54412;SDS011;41533;51.390;0.074;2023-03-03T06:55:49;1.15;;;0.52;;
54412;SDS011;41533;51.390;0.074;2023-03-03T06:58:18;2.13;;;0.77;;
54412;SDS011;41533;51.390;0.074;2023-03-03T07:00:49;4.10;;;0.95;;
54412;SDS011;41533;51.390;0.074;2023-03-03T07:03:21;1.10;;;0.68;;
54412;SDS011;41533;51.390;0.074;2023-03-03T07:05:52;0.50;;;0.50;;
54412;SDS011;41533;51.390;0.074;2023-03-03T07:08:22;2.38;;;0.70;;
54412;SDS011;41533;51.390;0.074;2023-03-03T07:10:50;0.60;;;0.60;;
54412;SDS011;41533;51.390;0.074;2023-03-03T07:15:47;0.50;;;0.50;;
54412;SDS011;41533;51.390;0.074;2023-03-03T07:20:53;1.48;;;0.60;;
54412;SDS011;41533;51.390;0.074;2023-03-03T07:25:48;1.17;;;0.82;;
54412;SDS011;41533;51.390;0.074;2023-03-03T07:30:50;2.03;;;0.70;;
54412;SDS011;41533;51.390;0.074;2023-03-03T07:33:26;1.35;;;0.80;;
54412;SDS011;41533;51.390;0.074;2023-03-03T07:35:56;1.77;;;0.93;;
54412;SDS011;41533;51.390;0.074;2023-03-03T07:38:29;1.23;;;0.60;;
54412;SDS011;41533;51.390;0.074;2023-03-03T07:43:30;1.52;;;0.75;;
54412;SDS011;41533;51.390;0.074;2023-03-03T07:48:38;1.05;;;0.68;;
54412;SDS011;41533;51.390;0.074;2023-03-03T07:51:27;1.38;;;0.80;;
54412;SDS011;41533;51.390;0.074;2023-03-03T07:54:41;0.60;;;0.60;;
54412;SDS011;41533;51.390;0.074;2023-03-03T07:56:45;1.83;;;1.00;;
54412;SDS011;41533;51.390;0.074;2023-03-03T07:59:19;1.95;;;0.90;;
54412;SDS011;41533;51.390;0.074;2023-03-03T08:04:21;1.15;;;0.80;;
54412;SDS011;41533;51.390;0.074;2023-03-03T08:06:55;1.42;;;0.77;;
54412;SDS011;41533;51.390;0.074;2023-03-03T08:09:59;1.08;;;0.90;;
54412;SDS011;41533;51.390;0.074;2023-03-03T08:12:47;0.60;;;0.60;;
54412;SDS011;41533;51.390;0.074;2023-03-03T08:17:45;2.42;;;0.57;;
54412;SDS011;41533;51.390;0.074;2023-03-03T08:22:59;0.50;;;0.50;;
54412;SDS011;41533;51.390;0.074;2023-03-03T08:25:27;0.63;;;0.50;;
54412;SDS011;41533;51.390;0.074;2023-03-03T08:27:54;3.42;;;1.05;;
54412;SDS011;41533;51.390;0.074;2023-03-03T08:30:21;0.60;;;0.60;;
54412;SDS011;41533;51.390;0.074;2023-03-03T08:32:52;0.70;;;0.60;;
54412;SDS011;41533;51.390;0.074;2023-03-03T08:35:20;1.48;;;0.80;;
54412;SDS011;41533;51.390;0.074;2023-03-03T08:37:47;0.80;;;0.57;;
54412;SDS011;41533;51.390;0.074;2023-03-03T08:40:15;0.60;;;0.60;;
54412;SDS011;41533;51.390;0.074;2023-03-03T08:42:42;0.90;;;0.60;;
54412;SDS011;41533;51.390;0.074;2023-03-03T08:45:10;0.65;;;0.63;;
54412;SDS011;41533;51.390;0.074;2023-03-03T08:47:37;1.48;;;0.73;;
54412;SDS011;41533;51.390;0.074;2023-03-03T08:50:05;1.20;;;0.80;;
54412;SDS011;41533;51.390;0.074;2023-03-03T08:52:33;0.88;;;0.80;;
54412;SDS011;41533;51.390;0.074;2023-03-03T08:55:00;1.30;;;0.77;;
54412;SDS011;41533;51.390;0.074;2023-03-03T08:57:27;1.35;;;0.68;;
54412;SDS011;41533;51.390;0.074;2023-03-03T08:59:55;0.88;;;0.60;;
54412;SDS011;41533;51.390;0.074;2023-03-03T09:02:23;1.63;;;1.17;;
54412;SDS011;41533;51.390;0.074;2023-03-03T09:04:50;1.23;;;0.93;;
54412;SDS011;41533;51.390;0.074;2023-03-03T09:07:17;1.20;;;0.70;;
54412;SDS011;41533;51.390;0.074;2023-03-03T09:09:45;0.75;;;0.60;;
54412;SDS011;41533;51.390;0.074;2023-03-03T09:14:59;4.43;;;1.00;;
54412;SDS011;41533;51.390;0.074;2023-03-03T09:17:30;1.23;;;0.85;;
54412;SDS011;41533;51.390;0.074;2023-03-03T09:22:40;2.08;;;0.80;;
54412;SDS011;41533;51.390;0.074;2023-03-03T09:25:13;0.68;;;0.68;;
54412;SDS011;41533;51.390;0.074;2023-03-03T09:27:44;1.52;;;0.98;;
54412;SDS011;41533;51.390;0.074;2023-03-03T09:30:27;1.15;;;0.75;;
54412;SDS011;41533;51.390;0.074;2023-03-03T09:36:03;2.92;;;1.10;;
54412;SDS011;41533;51.390;0.074;2023-03-03T09:38:32;1.10;;;0.85;;
54412;SDS011;41533;51.390;0.074;2023-03-03T09:43:35;2.05;;;0.80;;
54412;SDS011;41533;51.390;0.074;2023-03-03T09:56:08;0.70;;;0.70;;
54412;SDS011;41533;51.390;0.074;2023-03-03T10:14:24;1.00;;;0.75;;
54412;SDS011;41533;51.390;0.074;2023-03-03T10:17:00;1.95;;;0.60;;
54412;SDS011;41533;51.390;0.074;2023-03-03T10:22:05;2.60;;;0.60;;
54412;SDS011;41533;51.390;0.074;2023-03-03T10:24:42;1.83;;;0.80;;
54412;SDS011;41533;51.390;0.074;2023-03-03T10:27:22;1.98;;;0.80;;
54412;SDS011;41533;51.390;0.074;2023-03-03T10:32:32;0.82;;;0.60;;
54412;SDS011;41533;51.390;0.074;2023-03-03T10:38:16;3.10;;;0.63;;
54412;SDS011;41533;51.390;0.074;2023-03-03T10:41:00;1.02;;;0.50;;
54412;SDS011;41533;51.390;0.074;2023-03-03T10:49:41;0.83;;;0.60;;
54412;SDS011;41533;51.390;0.074;2023-03-03T11:00:23;0.60;;;0.60;;
54412;SDS011;41533;51.390;0.074;2023-03-03T11:03:13;1.25;;;0.60;;
54412;SDS011;41533;51.390;0.074;2023-03-03T11:05:50;0.68;;;0.45;;
54412;SDS011;41533;51.390;0.074;2023-03-03T11:08:21;1.98;;;0.55;;
54412;SDS011;41533;51.390;0.074;2023-03-03T11:21:45;0.50;;;0.50;;
54412;SDS011;41533;51.390;0.074;2023-03-03T11:29:42;1.00;;;0.50;;
54412;SDS011;41533;51.390;0.074;2023-03-03T11:37:29;3.33;;;1.60;;
54412;SDS011;41533;51.390;0.074;2023-03-03T11:40:03;2.33;;;1.25;;
54412;SDS011;41533;51.390;0.074;2023-03-03T11:45:16;2.67;;;1.38;;
54412;SDS011;41533;51.390;0.074;2023-03-03T11:50:20;3.97;;;1.25;;
54412;SDS011;41533;51.390;0.074;2023-03-03T11:55:18;5.32;;;3.15;;
54412;SDS011;41533;51.390;0.074;2023-03-03T11:57:53;7.95;;;3.20;;
54412;SDS011;41533;51.390;0.074;2023-03-03T12:03:17;6.55;;;3.17;;
54412;SDS011;41533;51.390;0.074;2023-03-03T12:08:37;6.53;;;3.13;;
54412;SDS011;41533;51.390;0.074;2023-03-03T12:11:13;6.78;;;2.92;;
54412;SDS011;41533;51.390;0.074;2023-03-03T12:16:56;7.30;;;2.78;;
54412;SDS011;41533;51.390;0.074;2023-03-03T12:22:25;5.97;;;2.50;;
54412;SDS011;41533;51.390;0.074;2023-03-03T12:25:17;2.70;;;1.98;;
54412;SDS011;41533;51.390;0.074;2023-03-03T12:30:48;6.03;;;2.38;;
54412;SDS011;41533;51.390;0.074;2023-03-03T12:47:14;3.00;;;1.63;;
54412;SDS011;41533;51.390;0.074;2023-03-03T13:06:06;2.25;;;1.50;;
54412;SDS011;41533;51.390;0.074;2023-03-03T13:11:15;2.25;;;1.13;;
54412;SDS011;41533;51.390;0.074;2023-03-03T13:13:52;2.80;;;1.60;;
54412;SDS011;41533;51.390;0.074;2023-03-03T13:16:41;1.10;;;1.00;;
54412;SDS011;41533;51.390;0.074;2023-03-03T13:19:13;1.30;;;1.05;;
54412;SDS011;41533;51.390;0.074;2023-03-03T13:26:54;6.00;;;2.78;;
54412;SDS011;41533;51.390;0.074;2023-03-03T13:29:25;5.15;;;2.58;;
54412;SDS011;41533;51.390;0.074;2023-03-03T13:31:57;3.85;;;1.88;;
54412;SDS011;41533;51.390;0.074;2023-03-03T13:36:57;4.50;;;1.80;;
54412;SDS011;41533;51.390;0.074;2023-03-03T13:39:29;6.80;;;3.13;;
54412;SDS011;41533;51.390;0.074;2023-03-03T13:44:40;3.00;;;1.60;;
54412;SDS011;41533;51.390;0.074;2023-03-03T13:47:12;6.50;;;2.28;;
54412;SDS011;41533;51.390;0.074;2023-03-03T14:00:06;2.20;;;1.20;;
54412;SDS011;41533;51.390;0.074;2023-03-03T14:18:58;1.42;;;0.90;;
54412;SDS011;41533;51.390;0.074;2023-03-03T14:21:30;2.75;;;1.20;;
54412;SDS011;41533;51.390;0.074;2023-03-03T14:24:13;2.00;;;0.95;;
54412;SDS011;41533;51.390;0.074;2023-03-03T14:26:48;1.42;;;0.60;;
54412;SDS011;41533;51.390;0.074;2023-03-03T14:31:53;5.32;;;0.90;;
54412;SDS011;41533;51.390;0.074;2023-03-03T14:36:49;1.83;;;0.52;;
54412;SDS011;41533;51.390;0.074;2023-03-03T14:41:53;1.55;;;0.82;;
54412;SDS011;41533;51.390;0.074;2023-03-03T14:49:37;1.73;;;0.93;;
54412;SDS011;41533;51.390;0.074;2023-03-03T14:54:43;1.50;;;0.90;;
54412;SDS011;41533;51.390;0.074;2023-03-03T15:02:31;3.80;;;1.63;;
54412;SDS011;41533;51.390;0.074;2023-03-03T15:07:40;7.05;;;2.70;;
54412;SDS011;41533;51.390;0.074;2023-03-03T15:10:08;5.00;;;2.47;;
54412;SDS011;41533;51.390;0.074;2023-03-03T15:12:38;4.43;;;1.70;;
54412;SDS011;41533;51.390;0.074;2023-03-03T15:15:16;5.80;;;1.90;;
54412;SDS011;41533;51.390;0.074;2023-03-03T15:20:25;2.65;;;1.65;;
54412;SDS011;41533;51.390;0.074;2023-03-03T15:31:01;3.03;;;1.00;;
54412;SDS011;41533;51.390;0.074;2023-03-03T15:33:46;2.75;;;1.45;;
54412;SDS011;41533;51.390;0.074;2023-03-03T15:44:24;2.00;;;1.00;;
54412;SDS011;41533;51.390;0.074;2023-03-03T15:57:11;1.48;;;0.88;;
54412;SDS011;41533;51.390;0.074;2023-03-03T16:02:18;2.47;;;1.35;;
54412;SDS011;41533;51.390;0.074;2023-03-03T16:04:57;3.50;;;1.17;;
54412;SDS011;41533;51.390;0.074;2023-03-03T16:07:29;1.75;;;0.93;;
54412;SDS011;41533;51.390;0.074;2023-03-03T16:10:02;4.88;;;1.00;;
54412;SDS011;41533;51.390;0.074;2023-03-03T16:12:46;2.53;;;0.98;;
54412;SDS011;41533;51.390;0.074;2023-03-03T16:20:37;0.90;;;0.60;;
54412;SDS011;41533;51.390;0.074;2023-03-03T16:36:17;1.05;;;0.55;;
54412;SDS011;41533;51.390;0.074;2023-03-03T16:39:00;1.25;;;0.65;;
54412;SDS011;41533;51.390;0.074;2023-03-03T16:41:32;0.38;;;0.38;;
54412;SDS011;41533;51.390;0.074;2023-03-03T17:10:10;0.82;;;0.45;;
54412;SDS011;41533;51.390;0.074;2023-03-03T17:15:14;0.40;;;0.40;;
54412;SDS011;41533;51.390;0.074;2023-03-03T17:18:02;0.43;;;0.43;;
54412;SDS011;41533;51.390;0.074;2023-03-03T17:25:52;0.50;;;0.40;;
54412;SDS011;41533;51.390;0.074;2023-03-03T17:28:26;0.43;;;0.43;;
54412;SDS011;41533;51.390;0.074;2023-03-03T17:41:45;0.73;;;0.55;;
54412;SDS011;41533;51.390;0.074;2023-03-03T17:44:19;0.45;;;0.45;;
54412;SDS011;41533;51.390;0.074;2023-03-03T17:46:52;0.95;;;0.63;;
54412;SDS011;41533;51.390;0.074;2023-03-03T18:07:59;1.27;;;0.73;;
54412;SDS011;41533;51.390;0.074;2023-03-03T18:13:03;1.48;;;0.70;;
54412;SDS011;41533;51.390;0.074;2023-03-03T18:21:15;0.63;;;0.47;;
54412;SDS011;41533;51.390;0.074;2023-03-03T18:23:43;0.90;;;0.80;;
54412;SDS011;41533;51.390;0.074;2023-03-03T18:29:31;0.90;;;0.60;;
54412;SDS011;41533;51.390;0.074;2023-03-03T18:36:53;1.42;;;0.73;;
54412;SDS011;41533;51.390;0.074;2023-03-03T18:39:37;0.85;;;0.70;;
54412;SDS011;41533;51.390;0.074;2023-03-03T18:44:37;2.30;;;1.02;;
54412;SDS011;41533;51.390;0.074;2023-03-03T18:47:05;1.23;;;0.70;;
54412;SDS011;41533;51.390;0.074;2023-03-03T18:49:55;1.02;;;0.63;;
54412;SDS011;41533;51.390;0.074;2023-03-03T18:54:59;0.98;;;0.60;;
54412;SDS011;41533;51.390;0.074;2023-03-03T18:57:27;1.63;;;1.15;;
54412;SDS011;41533;51.390;0.074;2023-03-03T18:59:56;1.85;;;0.80;;
54412;SDS011;41533;51.390;0.074;2023-03-03T19:02:29;2.88;;;0.60;;
54412;SDS011;41533;51.390;0.074;2023-03-03T19:05:08;0.90;;;0.75;;
54412;SDS011;41533;51.390;0.074;2023-03-03T19:12:51;1.40;;;0.65;;
54412;SDS011;41533;51.390;0.074;2023-03-03T19:18:56;0.88;;;0.80;;
54412;SDS011;41533;51.390;0.074;2023-03-03T19:20:46;1.02;;;1.02;;
54412;SDS011;41533;51.390;0.074;2023-03-03T19:23:16;2.20;;;1.20;;
54412;SDS011;41533;51.390;0.074;2023-03-03T19:25:44;0.75;;;0.65;;
54412;SDS011;41533;51.390;0.074;2023-03-03T19:36:13;3.53;;;1.23;;
54412;SDS011;41533;51.390;0.074;2023-03-03T19:49:16;1.73;;;1.05;;
54412;SDS011;41533;51.390;0.074;2023-03-03T19:54:48;1.40;;;0.95;;
54412;SDS011;41533;51.390;0.074;2023-03-03T19:59:51;1.30;;;1.20;;
54412;SDS011;41533;51.390;0.074;2023-03-03T20:15:58;2.33;;;1.35;;
54412;SDS011;41533;51.390;0.074;2023-03-03T20:26:39;1.83;;;1.10;;
54412;SDS011;41533;51.390;0.074;2023-03-03T20:32:06;3.23;;;1.77;;
54412;SDS011;41533;51.390;0.074;2023-03-03T20:40:05;2.78;;;1.50;;
54412;SDS011;41533;51.390;0.074;2023-03-03T20:53:01;3.03;;;1.42;;
54412;SDS011;41533;51.390;0.074;2023-03-03T20:55:37;3.78;;;1.60;;
54412;SDS011;41533;51.390;0.074;2023-03-03T20:58:14;5.72;;;1.58;;
54412;SDS011;41533;51.390;0.074;2023-03-03T21:08:44;2.05;;;1.30;;
54412;SDS011;41533;51.390;0.074;2023-03-03T21:11:12;3.33;;;1.63;;
54412;SDS011;41533;51.390;0.074;2023-03-03T21:13:44;4.20;;;1.70;;
54412;SDS011;41533;51.390;0.074;2023-03-03T21:18:54;5.05;;;1.98;;
54412;SDS011;41533;51.390;0.074;2023-03-03T21:21:23;3.55;;;1.27;;
54412;SDS011;41533;51.390;0.074;2023-03-03T21:23:50;3.80;;;1.52;;
54412;SDS011;41533;51.390;0.074;2023-03-03T21:29:59;3.10;;;1.50;;
54412;SDS011;41533;51.390;0.074;2023-03-03T21:32:05;4.93;;;1.42;;
54412;SDS011;41533;51.390;0.074;2023-03-03T21:34:35;4.60;;;1.67;;
54412;SDS011;41533;51.390;0.074;2023-03-03T21:37:04;2.25;;;1.02;;
54412;SDS011;41533;51.390;0.074;2023-03-03T21:42:06;3.08;;;1.50;;
54412;SDS011;41533;51.390;0.074;2023-03-03T21:47:01;5.88;;;1.75;;
54412;SDS011;41533;51.390;0.074;2023-03-03T21:49:28;3.33;;;0.98;;
54412;SDS011;41533;51.390;0.074;2023-03-03T21:51:55;2.97;;;1.20;;
54412;SDS011;41533;51.390;0.074;2023-03-03T21:54:23;1.90;;;0.98;;
54412;SDS011;41533;51.390;0.074;2023-03-03T21:56:50;5.35;;;1.10;;
54412;SDS011;41533;51.390;0.074;2023-03-03T21:59:18;2.13;;;1.08;;
54412;SDS011;41533;51.390;0.074;2023-03-03T22:01:45;5.70;;;1.35;;
54412;SDS011;41533;51.390;0.074;2023-03-03T22:04:12;3.08;;;0.98;;
54412;SDS011;41533;51.390;0.074;2023-03-03T22:06:39;8.93;;;1.27;;
54412;SDS011;41533;51.390;0.074;2023-03-03T22:09:07;4.00;;;1.10;;
54412;SDS011;41533;51.390;0.074;2023-03-03T22:11:34;2.72;;;1.15;;
54412;SDS011;41533;51.390;0.074;2023-03-03T22:14:01;5.90;;;1.15;;
54412;SDS011;41533;51.390;0.074;2023-03-03T22:16:28;7.45;;;1.00;;
54412;SDS011;41533;51.390;0.074;2023-03-03T22:18:55;2.05;;;0.82;;
54412;SDS011;41533;51.390;0.074;2023-03-03T22:21:23;2.20;;;1.10;;
54412;SDS011;41533;51.390;0.074;2023-03-03T22:23:50;1.48;;;0.95;;
54412;SDS011;41533;51.390;0.074;2023-03-03T22:26:17;4.35;;;1.08;;
54412;SDS011;41533;51.390;0.074;2023-03-03T22:28:47;3.13;;;1.38;;
54412;SDS011;41533;51.390;0.074;2023-03-03T22:31:15;6.45;;;1.45;;
54412;SDS011;41533;51.390;0.074;2023-03-03T22:33:43;6.18;;;0.95;;
54412;SDS011;41533;51.390;0.074;2023-03-03T22:36:10;2.00;;;0.90;;
54412;SDS011;41533;51.390;0.074;2023-03-03T22:38:38;4.53;;;1.45;;
54412;SDS011;41533;51.390;0.074;2023-03-03T22:41:06;6.22;;;1.23;;
54412;SDS011;41533;51.390;0.074;2023-03-03T22:43:33;2.90;;;1.27;;
54412;SDS011;41533;51.390;0.074;2023-03-03T22:46:00;2.70;;;1.00;;
54412;SDS011;41533;51.390;0.074;2023-03-03T22:48:28;3.95;;;1.38;;
54412;SDS011;41533;51.390;0.074;2023-03-03T22:50:56;6.90;;;1.52;;